createdAt,value
2023-04-07T00:01:31.267Z,54.30
2023-04-07T00:04:32.877Z,54.45
2023-04-07T00:07:42.044Z,54.26
2023-04-07T00:10:50.219Z,54.18
2023-04-07T00:13:51.936Z,54.17
2023-04-07T00:16:53.588Z,54.07
2023-04-07T00:19:55.141Z,54.18
2023-04-07T00:22:56.526Z,54.08
2023-04-07T00:25:57.962Z,53.82
2023-04-07T00:29:04.884Z,54.16
2023-04-07T00:32:06.294Z,54.06
2023-04-07T00:35:07.886Z,54.01
2023-04-07T00:38:09.251Z,54.09
2023-04-07T00:41:10.689Z,54.22
2023-04-07T00:44:12.483Z,54.07
2023-04-07T00:47:14.489Z,54.06
2023-04-07T00:50:16.161Z,53.98
2023-04-07T00:53:17.645Z,54.13
2023-04-07T00:56:20.396Z,54.15
2023-04-07T00:59:22.012Z,54.16
2023-04-07T01:02:27.353Z,54.07
2023-04-07T01:05:38.863Z,54.12
2023-04-07T01:09:02.028Z,54.02
2023-04-07T01:12:04.410Z,54.02
2023-04-07T01:15:09.686Z,53.92
2023-04-07T01:18:24.138Z,53.80
2023-04-07T01:21:27.677Z,53.81
2023-04-07T01:24:50.274Z,53.78
2023-04-07T01:28:01.357Z,53.60
2023-04-07T01:31:04.711Z,53.63
2023-04-07T01:34:06.610Z,53.56
2023-04-07T01:37:09.175Z,53.51
2023-04-07T01:40:11.565Z,53.58
2023-04-07T01:43:13.524Z,53.47
2023-04-07T01:46:15.369Z,53.51
2023-04-07T01:49:16.863Z,53.49
2023-04-07T01:52:18.362Z,53.50
2023-04-07T01:55:21.492Z,53.51
2023-04-07T01:58:43.148Z,53.53
2023-04-07T02:01:48.907Z,53.46
2023-04-07T02:04:58.227Z,53.46
2023-04-07T02:08:02.277Z,53.50
2023-04-07T02:11:04.806Z,53.50
2023-04-07T02:14:09.945Z,53.46
2023-04-07T02:17:28.492Z,53.43
2023-04-07T02:20:30.467Z,53.39
2023-04-07T02:23:34.682Z,53.52
2023-04-07T02:26:36.568Z,53.47
2023-04-07T02:29:37.965Z,53.47
2023-04-07T02:32:39.348Z,53.35
2023-04-07T02:35:40.736Z,53.43
2023-04-07T02:38:42.205Z,53.33
2023-04-07T02:41:43.650Z,53.46
2023-04-07T02:44:45.022Z,53.40
2023-04-07T02:47:46.437Z,53.47
2023-04-07T02:50:47.834Z,53.43
2023-04-07T02:53:49.262Z,53.38
2023-04-07T02:56:50.735Z,53.41
2023-04-07T02:59:52.213Z,53.46
2023-04-07T03:02:53.862Z,53.38
2023-04-07T03:05:55.640Z,53.40
2023-04-07T03:08:57.414Z,53.40
2023-04-07T03:11:58.875Z,53.47
2023-04-07T03:15:05.887Z,53.42
2023-04-07T03:18:08.444Z,53.54
2023-04-07T03:21:10.125Z,53.35
2023-04-07T03:24:11.672Z,53.41
2023-04-07T03:27:13.646Z,53.39
2023-04-07T03:30:20.741Z,53.35
2023-04-07T03:33:23.115Z,53.39
2023-04-07T03:36:24.629Z,53.37
2023-04-07T03:39:26.709Z,53.38
2023-04-07T03:42:32.423Z,53.46
2023-04-07T03:45:38.534Z,53.37
2023-04-07T03:48:41.459Z,53.43
2023-04-07T03:51:45.053Z,53.45
2023-04-07T03:54:50.381Z,53.32
2023-04-07T03:57:53.968Z,53.31
2023-04-07T04:00:55.594Z,53.27
2023-04-07T04:03:58.315Z,53.35
2023-04-07T04:07:04.918Z,53.40
2023-04-07T04:10:25.061Z,53.44
2023-04-07T04:13:28.541Z,53.34
2023-04-07T04:16:33.023Z,53.38
2023-04-07T04:19:38.600Z,53.52
2023-04-07T04:23:06.028Z,53.46
2023-04-07T04:26:08.952Z,53.46
2023-04-07T04:29:11.918Z,53.44
2023-04-07T04:32:17.734Z,53.43
2023-04-07T04:35:19.711Z,53.49
2023-04-07T04:38:33.463Z,53.65
2023-04-07T04:42:01.172Z,53.45
2023-04-07T04:45:08.177Z,53.61
2023-04-07T04:48:11.052Z,53.56
2023-04-07T04:51:12.677Z,53.85
2023-04-07T04:54:16.613Z,53.79
2023-04-07T04:57:19.414Z,53.96
2023-04-07T05:00:21.099Z,54.15
2023-04-07T05:03:27.015Z,54.17
2023-04-07T05:06:30.068Z,54.37
2023-04-07T05:09:36.533Z,54.33
2023-04-07T05:12:38.106Z,54.41
2023-04-07T05:15:41.118Z,54.46
2023-04-07T05:18:45.412Z,54.54
2023-04-07T05:21:46.949Z,54.62
2023-04-07T05:24:48.910Z,54.49
2023-04-07T05:27:50.440Z,54.60
2023-04-07T05:30:52.742Z,54.50
2023-04-07T05:33:56.774Z,54.48
2023-04-07T05:37:01.746Z,54.40
2023-04-07T05:40:03.708Z,54.33
2023-04-07T05:43:05.232Z,54.22
2023-04-07T05:46:08.496Z,54.23
2023-04-07T05:49:20.031Z,54.00
2023-04-07T05:52:27.053Z,54.31
2023-04-07T05:55:38.783Z,54.08
2023-04-07T05:58:43.472Z,53.99
2023-04-07T06:01:46.596Z,53.85
2023-04-07T06:04:48.308Z,53.83
2023-04-07T06:07:52.277Z,53.78
2023-04-07T06:10:53.808Z,53.81
2023-04-07T06:13:55.396Z,53.74
2023-04-07T06:16:56.925Z,53.64
2023-04-07T06:19:59.270Z,53.71
2023-04-07T06:23:00.723Z,53.58
2023-04-07T06:26:02.135Z,53.60
2023-04-07T06:29:04.591Z,53.54
2023-04-07T06:32:06.623Z,53.55
2023-04-07T06:35:08.278Z,53.54
2023-04-07T06:38:11.449Z,53.40
2023-04-07T06:41:16.883Z,53.46
2023-04-07T06:44:18.307Z,53.56
2023-04-07T06:47:19.719Z,53.55
2023-04-07T06:50:22.233Z,53.56
2023-04-07T06:53:23.809Z,53.68
2023-04-07T06:56:26.138Z,53.58
2023-04-07T06:59:27.580Z,53.58
2023-04-07T07:02:29.148Z,53.71
2023-04-07T07:05:30.867Z,53.75
2023-04-07T07:08:32.440Z,53.74
2023-04-07T07:11:33.916Z,53.70
2023-04-07T07:14:35.312Z,53.87
2023-04-07T07:17:36.815Z,53.82
2023-04-07T07:20:38.290Z,53.77
2023-04-07T07:23:39.840Z,53.81
2023-04-07T07:26:43.465Z,53.77
2023-04-07T07:29:45.813Z,53.80
2023-04-07T07:32:47.208Z,53.71
2023-04-07T07:35:48.869Z,53.88
2023-04-07T07:38:51.542Z,53.87
2023-04-07T07:41:52.981Z,53.84
2023-04-07T07:44:54.374Z,53.90
2023-04-07T07:47:55.907Z,53.86
2023-04-07T07:50:57.373Z,53.95
2023-04-07T07:53:58.931Z,53.89
2023-04-07T07:57:00.417Z,53.91
2023-04-07T08:00:02.055Z,53.92
2023-04-07T08:03:14.656Z,54.27
2023-04-07T08:06:16.624Z,54.47
2023-04-07T08:09:18.495Z,54.71
2023-04-07T08:12:19.890Z,54.82
2023-04-07T08:15:21.801Z,54.85
2023-04-07T08:18:23.276Z,54.91
2023-04-07T08:21:24.690Z,54.92
2023-04-07T08:24:26.096Z,55.03
2023-04-07T08:27:27.560Z,55.11
2023-04-07T08:30:28.937Z,55.18
2023-04-07T08:33:30.344Z,55.14
2023-04-07T08:36:31.980Z,55.14
2023-04-07T08:39:33.988Z,55.16
2023-04-07T08:42:38.322Z,55.19
2023-04-07T08:45:42.124Z,55.37
2023-04-07T08:48:44.279Z,55.47
2023-04-07T08:51:47.398Z,55.67
2023-04-07T08:54:49.254Z,55.90
2023-04-07T08:57:51.295Z,56.06
2023-04-07T09:00:53.188Z,56.18
2023-04-07T09:03:57.298Z,56.21
2023-04-07T09:06:58.787Z,56.23
2023-04-07T09:10:01.624Z,56.40
2023-04-07T09:13:03.105Z,56.29
2023-04-07T09:16:04.682Z,56.31
2023-04-07T09:19:07.164Z,56.43
2023-04-07T09:22:12.349Z,56.55
2023-04-07T09:25:22.640Z,56.52
2023-04-07T09:28:24.114Z,56.57
2023-04-07T09:31:43.964Z,56.74
2023-04-07T09:34:45.463Z,56.69
2023-04-07T09:38:01.317Z,56.88
2023-04-07T09:41:13.085Z,56.98
2023-04-07T09:44:14.587Z,57.15
2023-04-07T09:47:16.039Z,57.39
2023-04-07T09:50:30.592Z,57.66
2023-04-07T09:53:47.850Z,57.78
2023-04-07T09:56:51.071Z,58.19
2023-04-07T09:59:54.103Z,58.08
2023-04-07T10:02:56.420Z,58.12
2023-04-07T10:05:59.797Z,58.27
2023-04-07T10:09:01.885Z,58.40
2023-04-07T10:12:06.702Z,58.45
2023-04-07T10:15:08.503Z,58.67
2023-04-07T10:18:10.349Z,58.67
2023-04-07T10:21:15.160Z,58.70
2023-04-07T10:24:20.158Z,58.67
2023-04-07T10:27:27.686Z,58.61
2023-04-07T10:30:31.333Z,58.40
2023-04-07T10:33:47.012Z,58.25
2023-04-07T10:37:07.502Z,57.82
2023-04-07T10:40:21.676Z,57.40
2023-04-07T10:43:41.865Z,57.17
2023-04-07T10:46:49.985Z,56.75
2023-04-07T10:50:18.303Z,56.34
2023-04-07T10:53:19.916Z,56.02
2023-04-07T10:56:21.602Z,55.63
2023-04-07T10:59:27.399Z,55.49
2023-04-07T11:02:29.227Z,54.67
2023-04-07T11:05:30.856Z,53.82
2023-04-07T11:08:36.238Z,53.33
2023-04-07T11:11:38.878Z,53.19
2023-04-07T11:14:42.172Z,52.45
2023-04-07T11:17:43.603Z,51.70
2023-04-07T11:20:46.074Z,51.00
2023-04-07T11:23:48.213Z,50.24
2023-04-07T11:26:50.737Z,50.10
2023-04-07T11:29:52.266Z,50.04
2023-04-07T11:32:53.773Z,49.42
2023-04-07T11:35:56.898Z,48.95
2023-04-07T11:38:58.943Z,48.72
2023-04-07T11:42:00.337Z,48.78
2023-04-07T11:45:01.907Z,48.79
2023-04-07T11:48:03.413Z,48.85
2023-04-07T11:51:05.372Z,48.99
2023-04-07T11:54:06.904Z,48.71
2023-04-07T11:57:10.415Z,48.65
2023-04-07T12:00:12.668Z,47.96
2023-04-07T12:03:14.703Z,47.10
2023-04-07T12:06:27.548Z,46.36
2023-04-07T12:09:34.757Z,46.43
2023-04-07T12:12:36.128Z,46.51
2023-04-07T12:15:37.660Z,46.75
2023-04-07T12:18:39.059Z,46.71
2023-04-07T12:21:40.883Z,46.46
2023-04-07T12:24:42.414Z,46.45
2023-04-07T12:27:44.128Z,46.56
2023-04-07T12:30:45.530Z,46.73
2023-04-07T12:33:47.128Z,46.97
2023-04-07T12:36:48.785Z,47.07
2023-04-07T12:39:50.158Z,47.20
2023-04-07T12:42:51.924Z,47.30
2023-04-07T12:45:53.367Z,47.53
2023-04-07T12:48:54.860Z,47.59
2023-04-07T12:51:56.579Z,47.70
2023-04-07T12:54:58.550Z,47.80
2023-04-07T12:58:00.414Z,48.02
2023-04-07T13:01:01.881Z,48.08
2023-04-07T13:04:03.399Z,48.23
2023-04-07T13:07:04.853Z,48.29
2023-04-07T13:10:08.147Z,48.45
2023-04-07T13:13:09.517Z,48.59
2023-04-07T13:16:11.259Z,48.69
2023-04-07T13:19:12.679Z,48.80
2023-04-07T13:22:18.158Z,48.88
2023-04-07T13:25:23.040Z,49.13
2023-04-07T13:28:24.482Z,49.48
2023-04-07T13:31:25.941Z,49.51
2023-04-07T13:34:27.594Z,49.75
2023-04-07T13:37:28.988Z,49.85
2023-04-07T13:40:30.720Z,49.90
2023-04-07T13:43:32.097Z,50.12
2023-04-07T13:46:33.540Z,50.08
2023-04-07T13:49:34.953Z,50.29
2023-04-07T13:52:36.389Z,50.37
2023-04-07T13:55:37.894Z,50.51
2023-04-07T13:58:39.309Z,50.71
2023-04-07T14:01:40.874Z,50.81
2023-04-07T14:04:42.425Z,50.87
2023-04-07T14:07:43.917Z,50.78
2023-04-07T14:10:45.365Z,50.85
2023-04-07T14:13:46.993Z,50.74
2023-04-07T14:16:51.774Z,50.75
2023-04-07T14:19:53.247Z,50.83
2023-04-07T14:22:54.823Z,50.86
2023-04-07T14:25:56.503Z,50.77
2023-04-07T14:28:58.057Z,50.83
2023-04-07T14:31:59.439Z,50.89
2023-04-07T14:35:01.162Z,50.85
2023-04-07T14:38:02.540Z,50.99
2023-04-07T14:44:08.345Z,51.20
2023-04-07T14:47:09.715Z,51.25
2023-04-07T14:50:11.433Z,51.32
2023-04-07T14:53:12.839Z,51.56
2023-04-07T14:56:14.286Z,51.37
2023-04-07T14:59:15.695Z,51.48
2023-04-07T15:02:17.271Z,51.34
2023-04-07T15:05:18.703Z,51.35
2023-04-07T15:08:20.230Z,51.46
2023-04-07T15:11:21.825Z,51.48
2023-04-07T15:14:23.230Z,51.46
2023-04-07T15:17:36.364Z,51.47
2023-04-07T15:20:42.390Z,51.39
2023-04-07T15:23:43.840Z,51.45
2023-04-07T15:26:45.206Z,51.41
2023-04-07T15:29:47.069Z,51.41
2023-04-07T15:33:02.545Z,51.55
2023-04-07T15:36:04.759Z,51.38
2023-04-07T15:39:06.802Z,51.47
2023-04-07T15:42:12.234Z,51.36
2023-04-07T15:45:13.718Z,51.51
2023-04-07T15:48:15.343Z,51.52
2023-04-07T15:51:16.755Z,51.60
2023-04-07T15:54:18.177Z,51.59
2023-04-07T15:57:21.124Z,51.49
2023-04-07T16:00:22.752Z,51.50
2023-04-07T16:03:24.706Z,51.55
2023-04-07T16:06:26.349Z,51.57
2023-04-07T16:09:28.568Z,51.50
2023-04-07T16:12:30.014Z,51.50
2023-04-07T16:15:40.111Z,51.58
2023-04-07T16:18:42.945Z,51.59
2023-04-07T16:21:47.345Z,51.58
2023-04-07T16:24:48.772Z,51.73
2023-04-07T16:27:52.310Z,51.62
2023-04-07T16:30:53.753Z,51.79
2023-04-07T16:33:55.194Z,51.71
2023-04-07T16:36:59.646Z,51.81
2023-04-07T16:40:01.243Z,51.69
2023-04-07T16:43:02.732Z,51.79
2023-04-07T16:46:05.757Z,51.85
2023-04-07T16:49:07.280Z,51.93
2023-04-07T16:52:08.788Z,51.98
2023-04-07T16:55:10.616Z,51.67
2023-04-07T16:58:12.027Z,51.93
2023-04-07T17:01:13.471Z,51.95
2023-04-07T17:04:15.350Z,51.84
2023-04-07T17:07:16.878Z,52.09
2023-04-07T17:10:18.260Z,52.14
2023-04-07T17:13:19.664Z,52.14
2023-04-07T17:16:21.240Z,52.16
2023-04-07T17:19:23.096Z,52.06
2023-04-07T17:22:24.780Z,52.13
2023-04-07T17:25:26.218Z,52.12
2023-04-07T17:28:30.026Z,52.29
2023-04-07T17:31:34.331Z,52.27
2023-04-07T17:34:36.027Z,52.43
2023-04-07T17:37:38.280Z,52.65
2023-04-07T17:40:39.633Z,52.50
2023-04-07T17:43:41.145Z,52.67
2023-04-07T17:46:42.612Z,52.72
2023-04-07T17:49:43.980Z,52.84
2023-04-07T17:52:45.352Z,52.83
2023-04-07T17:55:46.723Z,52.83
2023-04-07T17:58:48.123Z,52.96
2023-04-07T18:01:49.649Z,52.93
2023-04-07T18:04:51.278Z,53.17
2023-04-07T18:07:52.966Z,53.06
2023-04-07T18:10:54.350Z,53.13
2023-04-07T18:13:56.426Z,53.31
2023-04-07T18:16:58.061Z,53.48
2023-04-07T18:19:59.514Z,53.66
2023-04-07T18:23:00.932Z,53.78
2023-04-07T18:26:04.602Z,53.66
2023-04-07T18:29:09.480Z,53.71
2023-04-07T18:32:11.525Z,53.71
2023-04-07T18:35:12.908Z,53.95
2023-04-07T18:38:14.338Z,54.03
2023-04-07T18:41:16.031Z,54.07
2023-04-07T18:44:17.468Z,54.21
2023-04-07T18:47:18.885Z,54.21
2023-04-07T18:50:20.312Z,54.32
2023-04-07T18:53:22.595Z,54.44
2023-04-07T18:56:27.209Z,54.35
2023-04-07T18:59:29.025Z,52.20
2023-04-07T19:02:30.754Z,52.49
2023-04-07T19:05:32.915Z,51.82
2023-04-07T19:08:35.228Z,50.04
2023-04-07T19:11:36.693Z,51.20
2023-04-07T19:14:38.101Z,51.91
2023-04-07T19:17:39.572Z,52.27
2023-04-07T19:20:41.082Z,52.51
2023-04-07T19:23:42.527Z,52.59
2023-04-07T19:26:44.634Z,52.90
2023-04-07T19:29:46.107Z,52.88
2023-04-07T19:32:47.713Z,52.85
2023-04-07T19:35:49.122Z,52.86
2023-04-07T19:38:50.555Z,52.89
2023-04-07T19:41:52.399Z,52.97
2023-04-07T19:44:56.144Z,53.00
2023-04-07T19:47:59.130Z,53.03
2023-04-07T19:51:00.900Z,53.02
2023-04-07T19:54:02.305Z,52.96
2023-04-07T19:57:03.669Z,52.88
2023-04-07T20:00:05.364Z,53.02
2023-04-07T20:03:06.981Z,53.03
2023-04-07T20:06:08.764Z,52.98
2023-04-07T20:09:10.565Z,53.09
2023-04-07T20:12:11.991Z,52.95
2023-04-07T20:15:13.439Z,53.09
2023-04-07T20:18:16.829Z,53.03
2023-04-07T20:21:18.177Z,53.10
2023-04-07T20:24:19.545Z,53.22
2023-04-07T20:27:21.190Z,53.18
2023-04-07T20:30:22.546Z,53.16
2023-04-07T20:33:23.922Z,53.10
2023-04-07T20:36:26.312Z,53.02
2023-04-07T20:39:27.682Z,53.11
2023-04-07T20:42:29.078Z,53.03
2023-04-07T20:45:30.477Z,53.17
2023-04-07T20:48:32.422Z,53.15
2023-04-07T20:51:35.973Z,53.19
2023-04-07T20:54:37.345Z,53.18
2023-04-07T20:57:41.710Z,53.23
2023-04-07T21:00:43.163Z,53.30
2023-04-07T21:03:44.685Z,53.33
2023-04-07T21:06:46.266Z,53.25
2023-04-07T21:09:47.604Z,53.32
2023-04-07T21:12:48.946Z,53.28
2023-04-07T21:15:50.444Z,53.45
2023-04-07T21:18:52.527Z,53.43
2023-04-07T21:21:53.886Z,53.51
2023-04-07T21:24:57.254Z,53.44
2023-04-07T21:27:58.941Z,53.44
2023-04-07T21:31:03.140Z,53.35
2023-04-07T21:34:04.613Z,53.49
2023-04-07T21:37:05.973Z,53.47
2023-04-07T21:40:07.733Z,53.46
2023-04-07T21:43:09.146Z,53.51
2023-04-07T21:46:10.600Z,53.45
2023-04-07T21:49:14.089Z,53.45
2023-04-07T21:52:17.309Z,53.60
2023-04-07T21:55:20.662Z,53.52
2023-04-07T21:58:23.416Z,53.57
2023-04-07T22:01:24.782Z,53.57
2023-04-07T22:04:26.677Z,53.50
2023-04-07T22:07:28.243Z,53.55
2023-04-07T22:10:30.954Z,53.62
2023-04-07T22:13:32.335Z,53.53
2023-04-07T22:16:34.199Z,53.54
2023-04-07T22:19:35.754Z,53.54
2023-04-07T22:22:37.230Z,53.57
2023-04-07T22:25:38.596Z,53.53
2023-04-07T22:28:39.965Z,53.62
2023-04-07T22:31:41.362Z,53.50
2023-04-07T22:34:42.764Z,53.57
2023-04-07T22:37:44.185Z,53.80
2023-04-07T22:40:45.919Z,53.57
2023-04-07T22:43:47.270Z,53.67
2023-04-07T22:46:48.626Z,53.66
2023-04-07T22:49:50.033Z,53.43
2023-04-07T22:52:51.389Z,53.69
2023-04-07T22:55:52.774Z,53.56
2023-04-07T22:58:54.174Z,53.55
2023-04-07T23:01:57.689Z,53.58
2023-04-07T23:04:59.730Z,53.63
2023-04-07T23:08:01.546Z,53.64
2023-04-07T23:11:02.942Z,53.60
2023-04-07T23:14:05.982Z,53.79
2023-04-07T23:17:07.501Z,53.64
2023-04-07T23:20:09.247Z,53.73
2023-04-07T23:23:10.780Z,53.70
2023-04-07T23:26:12.121Z,53.68
2023-04-07T23:29:13.510Z,53.73
2023-04-07T23:32:14.895Z,53.84
2023-04-07T23:35:16.297Z,53.82
2023-04-07T23:38:17.717Z,53.81
2023-04-07T23:41:19.090Z,53.91
2023-04-07T23:44:20.604Z,53.83
2023-04-07T23:47:22.116Z,53.79
2023-04-07T23:50:23.685Z,53.89
2023-04-07T23:53:25.204Z,53.88
2023-04-07T23:56:27.568Z,53.86
2023-04-07T23:59:29.075Z,53.86
